Time;durP1;ratioP1;P1;durP2;ratioP2;P2;SDS_P1;SDS_P2;PMS_P1;PMS_P2;Temp;Humidity;BMP_temperature;BMP_pressure;BME280_temperature;BME280_humidity;BME280_pressure;Samples;Min_cycle;Max_cycle;Signal;HPM_P1;HPM_P2
2023/06/07 00:01:47;;;;;;;7.12;3.80;;;;;;;;;;4386486;32;316854;-77
2023/06/07 00:04:14;;;;;;;13.10;4.50;;;;;;;;;;4376311;32;316824;-77
2023/06/07 00:06:41;;;;;;;10.48;4.18;;;;;;;;;;4387615;32;317697;-76
2023/06/07 00:09:09;;;;;;;11.07;3.75;;;;;;;;;;4372413;32;330536;-77
2023/06/07 00:11:38;;;;;;;22.10;4.62;;;;;;;;;;4387178;32;317884;-77
2023/06/07 00:14:06;;;;;;;10.20;4.25;;;;;;;;;;4387328;32;317708;-77
2023/06/07 00:16:34;;;;;;;13.80;6.45;;;;;;;;;;4374891;32;417567;-77
2023/06/07 00:19:01;;;;;;;11.20;8.10;;;;;;;;;;4386809;32;318124;-76
2023/06/07 00:21:30;;;;;;;15.80;7.72;;;;;;;;;;4377255;32;328672;-77
2023/06/07 00:23:57;;;;;;;10.48;5.87;;;;;;;;;;4385446;32;318089;-76
2023/06/07 00:26:24;;;;;;;17.50;6.03;;;;;;;;;;4376185;32;317745;-77
2023/06/07 00:28:53;;;;;;;14.98;5.62;;;;;;;;;;4386615;32;343544;-84
2023/06/07 00:31:20;;;;;;;17.40;6.40;;;;;;;;;;4377827;32;317777;-77
2023/06/07 00:33:48;;;;;;;10.13;5.82;;;;;;;;;;4385834;32;317680;-77
2023/06/07 00:36:15;;;;;;;12.70;6.25;;;;;;;;;;4376584;32;316371;-77
2023/06/07 00:38:43;;;;;;;11.90;5.82;;;;;;;;;;4387303;32;330697;-77
2023/06/07 00:41:10;;;;;;;11.18;6.10;;;;;;;;;;4376511;32;317783;-77
2023/06/07 00:43:37;;;;;;;10.13;5.25;;;;;;;;;;4386837;32;317838;-77
2023/06/07 00:46:07;;;;;;;9.52;5.28;;;;;;;;;;4386960;32;317892;-77
2023/06/07 00:48:34;;;;;;;8.32;5.30;;;;;;;;;;4373452;32;415951;-76
2023/06/07 00:51:02;;;;;;;9.82;5.55;;;;;;;;;;4387173;32;316743;-76
2023/06/07 00:53:30;;;;;;;11.55;4.95;;;;;;;;;;4374716;32;316504;-76
2023/06/07 00:55:58;;;;;;;8.25;5.30;;;;;;;;;;4386586;32;317696;-76
2023/06/07 00:58:26;;;;;;;12.70;5.37;;;;;;;;;;4375633;32;316757;-76
2023/06/07 01:00:57;;;;;;;10.77;5.60;;;;;;;;;;4383460;32;318209;-77
2023/06/07 01:03:27;;;;;;;19.33;4.87;;;;;;;;;;4375993;32;317821;-77
2023/06/07 01:05:55;;;;;;;8.05;4.60;;;;;;;;;;4384529;32;317861;-77
2023/06/07 01:08:25;;;;;;;13.77;4.82;;;;;;;;;;4369063;32;317150;-76
2023/06/07 01:10:55;;;;;;;7.57;5.05;;;;;;;;;;4384975;32;317954;-76
2023/06/07 01:13:24;;;;;;;6.60;4.47;;;;;;;;;;4373401;32;316980;-77
2023/06/07 01:15:52;;;;;;;8.27;4.43;;;;;;;;;;4387148;32;358723;-76
2023/06/07 01:18:20;;;;;;;9.25;4.47;;;;;;;;;;4376707;32;316922;-77
2023/06/07 01:20:55;;;;;;;12.77;4.40;;;;;;;;;;4385540;32;317150;-76
2023/06/07 01:23:31;;;;;;;10.93;4.80;;;;;;;;;;4375495;32;318077;-77
2023/06/07 01:26:00;;;;;;;11.30;5.32;;;;;;;;;;4386534;32;318055;-77
2023/06/07 01:28:28;;;;;;;9.40;4.75;;;;;;;;;;4374483;32;334570;-76
2023/06/07 01:30:56;;;;;;;5.78;3.83;;;;;;;;;;4385243;32;316903;-77
2023/06/07 01:33:25;;;;;;;9.23;4.30;;;;;;;;;;4375705;32;317007;-77
2023/06/07 01:35:55;;;;;;;9.93;4.78;;;;;;;;;;4385002;32;316764;-77
2023/06/07 01:38:23;;;;;;;10.65;5.32;;;;;;;;;;4375058;32;316771;-77
2023/06/07 01:40:53;;;;;;;7.68;4.47;;;;;;;;;;4386034;32;317814;-77
2023/06/07 01:43:22;;;;;;;6.72;4.70;;;;;;;;;;4375867;32;316721;-77
2023/06/07 01:45:50;;;;;;;13.68;4.57;;;;;;;;;;4386144;32;316747;-77
2023/06/07 01:48:18;;;;;;;12.25;5.35;;;;;;;;;;4375148;32;317925;-78
2023/06/07 01:50:45;;;;;;;9.32;4.55;;;;;;;;;;4384864;32;317675;-78
2023/06/07 01:53:13;;;;;;;7.30;4.45;;;;;;;;;;4375547;32;316581;-77
2023/06/07 01:55:40;;;;;;;7.35;4.85;;;;;;;;;;4384660;32;316717;-77
2023/06/07 01:58:20;;;;;;;8.50;4.43;;;;;;;;;;4373708;32;396649;-77
2023/06/07 02:00:56;;;;;;;11.98;4.22;;;;;;;;;;4373027;32;316762;-77
2023/06/07 02:03:30;;;;;;;15.13;4.90;;;;;;;;;;4386105;32;317371;-81
2023/06/07 02:06:02;;;;;;;9.75;4.90;;;;;;;;;;4375725;32;318196;-79
2023/06/07 02:08:33;;;;;;;7.40;4.47;;;;;;;;;;4384492;32;316903;-78
2023/06/07 02:11:03;;;;;;;11.93;4.93;;;;;;;;;;4376261;32;324855;-79
2023/06/07 02:13:35;;;;;;;8.77;4.87;;;;;;;;;;4385470;32;317950;-79
2023/06/07 02:16:04;;;;;;;8.65;4.65;;;;;;;;;;4375479;32;317144;-81
2023/06/07 02:18:33;;;;;;;7.05;4.62;;;;;;;;;;4385018;32;317147;-78
2023/06/07 02:21:00;;;;;;;9.23;5.18;;;;;;;;;;4375525;32;316869;-81
2023/06/07 02:23:27;;;;;;;9.20;4.68;;;;;;;;;;4385012;32;317029;-80
2023/06/07 02:25:56;;;;;;;7.15;4.80;;;;;;;;;;4373810;32;317004;-77
2023/06/07 02:28:23;;;;;;;9.13;4.12;;;;;;;;;;4384909;32;316813;-77
2023/06/07 02:30:55;;;;;;;14.98;4.87;;;;;;;;;;4374160;32;344829;-79
2023/06/07 02:33:24;;;;;;;13.73;4.78;;;;;;;;;;4385503;32;318022;-77
2023/06/07 02:35:51;;;;;;;7.55;4.22;;;;;;;;;;4375603;32;318094;-77
2023/06/07 02:38:18;;;;;;;10.30;4.90;;;;;;;;;;4385465;32;317189;-77
2023/06/07 02:40:46;;;;;;;9.45;5.10;;;;;;;;;;4385223;32;317800;-77
2023/06/07 02:43:14;;;;;;;11.05;4.80;;;;;;;;;;4372553;32;415866;-77
2023/06/07 02:45:41;;;;;;;11.98;5.12;;;;;;;;;;4385641;32;317919;-77
2023/06/07 02:48:12;;;;;;;8.45;4.97;;;;;;;;;;4373131;32;317991;-77
2023/06/07 02:50:39;;;;;;;9.65;4.15;;;;;;;;;;4387123;32;316738;-77
2023/06/07 02:53:07;;;;;;;10.00;4.75;;;;;;;;;;4376173;32;316817;-77
2023/06/07 02:55:34;;;;;;;12.02;4.75;;;;;;;;;;4388325;32;317908;-77
2023/06/07 02:58:02;;;;;;;9.60;4.67;;;;;;;;;;4376329;32;342770;-77
2023/06/07 03:00:29;;;;;;;10.88;4.30;;;;;;;;;;4388718;32;316900;-77
2023/06/07 03:02:56;;;;;;;7.60;4.95;;;;;;;;;;4377504;32;335410;-77
2023/06/07 03:05:26;;;;;;;9.32;5.22;;;;;;;;;;4387727;32;317573;-77
2023/06/07 03:07:56;;;;;;;16.15;5.20;;;;;;;;;;4378871;32;317020;-78
2023/06/07 03:10:24;;;;;;;11.27;4.95;;;;;;;;;;4387878;32;317949;-77
2023/06/07 03:12:51;;;;;;;6.65;4.87;;;;;;;;;;4378349;32;317939;-77
2023/06/07 03:15:18;;;;;;;8.73;4.72;;;;;;;;;;4387966;32;316839;-77
2023/06/07 03:17:45;;;;;;;9.60;5.50;;;;;;;;;;4388508;32;316981;-77
2023/06/07 03:20:13;;;;;;;7.75;5.50;;;;;;;;;;4374718;32;416391;-81
2023/06/07 03:22:44;;;;;;;13.80;4.75;;;;;;;;;;4388411;32;317004;-77
2023/06/07 03:25:12;;;;;;;13.88;5.37;;;;;;;;;;4373655;32;418884;-85
2023/06/07 03:27:40;;;;;;;10.05;5.93;;;;;;;;;;4387101;32;318087;-81
2023/06/07 03:30:08;;;;;;;7.00;5.32;;;;;;;;;;4376657;32;317842;-77
2023/06/07 03:32:36;;;;;;;13.93;5.05;;;;;;;;;;4386217;32;316960;-78
2023/06/07 03:35:03;;;;;;;7.62;5.75;;;;;;;;;;4376592;32;318152;-77
2023/06/07 03:37:33;;;;;;;7.90;5.50;;;;;;;;;;4385560;32;317288;-78
2023/06/07 03:40:05;;;;;;;15.30;5.32;;;;;;;;;;4376043;32;316813;-76
2023/06/07 03:42:33;;;;;;;11.55;4.95;;;;;;;;;;4383851;32;316907;-80
2023/06/07 03:45:00;;;;;;;13.63;5.83;;;;;;;;;;4376111;32;317834;-82
2023/06/07 03:47:28;;;;;;;10.48;5.80;;;;;;;;;;4387386;32;318244;-77
2023/06/07 03:49:55;;;;;;;8.80;5.40;;;;;;;;;;4376504;32;318017;-77
2023/06/07 03:52:23;;;;;;;11.00;5.70;;;;;;;;;;4388030;32;316933;-79
2023/06/07 03:54:50;;;;;;;14.27;5.35;;;;;;;;;;4377491;32;317908;-84
2023/06/07 03:57:19;;;;;;;12.82;5.68;;;;;;;;;;4386449;32;357765;-78
2023/06/07 03:59:47;;;;;;;19.70;6.45;;;;;;;;;;4386840;32;318017;-78
2023/06/07 04:02:14;;;;;;;10.38;5.55;;;;;;;;;;4373408;32;416976;-78
2023/06/07 04:04:42;;;;;;;17.62;5.70;;;;;;;;;;4387215;32;318243;-78
2023/06/07 04:07:09;;;;;;;18.17;5.53;;;;;;;;;;4376969;32;317787;-77
2023/06/07 04:09:36;;;;;;;10.00;5.07;;;;;;;;;;4387268;32;317975;-77
2023/06/07 04:12:05;;;;;;;13.15;4.70;;;;;;;;;;4376388;32;317787;-77
2023/06/07 04:14:34;;;;;;;10.10;5.00;;;;;;;;;;4387738;32;317902;-78
2023/06/07 04:17:02;;;;;;;10.15;5.00;;;;;;;;;;4374735;32;317996;-78
2023/06/07 04:19:29;;;;;;;7.12;4.15;;;;;;;;;;4387823;32;318134;-78
2023/06/07 04:21:56;;;;;;;12.00;5.47;;;;;;;;;;4376352;32;316939;-78
2023/06/07 04:24:24;;;;;;;13.60;5.35;;;;;;;;;;4387165;32;317913;-78
2023/06/07 04:26:53;;;;;;;11.85;5.22;;;;;;;;;;4375354;32;317842;-78
2023/06/07 04:29:25;;;;;;;8.43;5.35;;;;;;;;;;4387320;32;316805;-78
2023/06/07 04:31:56;;;;;;;20.33;5.72;;;;;;;;;;4377065;32;316715;-79
2023/06/07 04:34:24;;;;;;;10.82;5.20;;;;;;;;;;4384672;32;317954;-78
2023/06/07 04:36:52;;;;;;;15.43;5.12;;;;;;;;;;4376876;32;317972;-77
2023/06/07 04:39:20;;;;;;;15.55;4.85;;;;;;;;;;4387189;32;317839;-79
2023/06/07 04:41:48;;;;;;;15.90;5.53;;;;;;;;;;4376844;32;317793;-82
2023/06/07 04:44:27;;;;;;;16.87;5.43;;;;;;;;;;4385687;32;318156;-80
2023/06/07 04:46:57;;;;;;;12.93;6.20;;;;;;;;;;4375673;32;327747;-80
2023/06/07 04:49:25;;;;;;;23.58;6.47;;;;;;;;;;4385550;32;318111;-77
2023/06/07 04:51:53;;;;;;;12.93;5.97;;;;;;;;;;4373999;32;345680;-77
2023/06/07 04:54:20;;;;;;;11.95;6.40;;;;;;;;;;4386894;32;317764;-78
2023/06/07 04:56:48;;;;;;;14.68;6.03;;;;;;;;;;4371678;32;317913;-79
2023/06/07 04:59:18;;;;;;;12.27;5.65;;;;;;;;;;4385367;32;318108;-78
2023/06/07 05:01:46;;;;;;;23.62;6.53;;;;;;;;;;4385524;32;317687;-78
2023/06/07 05:04:16;;;;;;;27.42;6.32;;;;;;;;;;4372346;32;417351;-85
2023/06/07 05:06:44;;;;;;;12.35;5.55;;;;;;;;;;4386019;32;317647;-78
2023/06/07 05:09:11;;;;;;;14.38;6.00;;;;;;;;;;4373533;32;317942;-77
2023/06/07 05:11:40;;;;;;;8.65;6.22;;;;;;;;;;4385555;32;317826;-79
2023/06/07 05:14:08;;;;;;;13.52;6.75;;;;;;;;;;4375582;32;316816;-77
2023/06/07 05:16:35;;;;;;;14.10;7.62;;;;;;;;;;4383821;32;317764;-79
2023/06/07 05:19:03;;;;;;;16.00;5.78;;;;;;;;;;4375853;32;317960;-77
2023/06/07 05:21:32;;;;;;;12.37;6.55;;;;;;;;;;4385262;32;316716;-79
2023/06/07 05:23:59;;;;;;;11.45;7.45;;;;;;;;;;4374450;32;318085;-81
2023/06/07 05:26:27;;;;;;;19.77;7.15;;;;;;;;;;4384103;32;317956;-81
2023/06/07 05:28:55;;;;;;;12.07;7.18;;;;;;;;;;4375814;32;317738;-80
2023/06/07 05:31:23;;;;;;;11.12;6.95;;;;;;;;;;4385948;32;318108;-79
2023/06/07 05:33:50;;;;;;;11.73;7.00;;;;;;;;;;4374046;32;317972;-80
2023/06/07 05:36:18;;;;;;;25.15;8.45;;;;;;;;;;4386198;32;317802;-79
2023/06/07 05:38:47;;;;;;;11.02;6.72;;;;;;;;;;4384394;32;318027;-79
2023/06/07 05:41:14;;;;;;;19.67;6.72;;;;;;;;;;4371968;32;417294;-79
2023/06/07 05:43:42;;;;;;;20.60;7.45;;;;;;;;;;4384710;32;317820;-79
2023/06/07 05:46:11;;;;;;;18.48;6.72;;;;;;;;;;4369690;32;317760;-79
2023/06/07 05:48:38;;;;;;;13.77;6.10;;;;;;;;;;4395772;32;317855;-83
2023/06/07 05:51:06;;;;;;;13.00;6.90;;;;;;;;;;4375764;32;337184;-83
2023/06/07 05:53:33;;;;;;;18.15;5.95;;;;;;;;;;4385505;32;317922;-81
2023/06/07 05:56:02;;;;;;;12.40;6.53;;;;;;;;;;4374834;32;317771;-81
2023/06/07 05:58:31;;;;;;;9.05;5.87;;;;;;;;;;4385769;32;317744;-80
2023/06/07 06:00:59;;;;;;;17.58;6.95;;;;;;;;;;4375855;32;316704;-82
2023/06/07 06:03:26;;;;;;;19.33;7.00;;;;;;;;;;4383137;32;317978;-84
2023/06/07 06:05:57;;;;;;;11.27;6.50;;;;;;;;;;4375828;32;317732;-80
2023/06/07 06:08:24;;;;;;;22.62;7.40;;;;;;;;;;4385263;32;317876;-80
2023/06/07 06:10:52;;;;;;;15.05;6.45;;;;;;;;;;4374452;32;317760;-81
2023/06/07 06:13:21;;;;;;;13.48;6.95;;;;;;;;;;4385323;32;318128;-80
2023/06/07 06:15:48;;;;;;;14.27;6.50;;;;;;;;;;4374653;32;318094;-80
2023/06/07 06:18:16;;;;;;;12.88;6.60;;;;;;;;;;4384941;32;317823;-80
2023/06/07 06:20:43;;;;;;;8.13;5.15;;;;;;;;;;4385864;32;318040;-80
2023/06/07 06:23:11;;;;;;;12.45;7.47;;;;;;;;;;4374197;32;317074;-80
2023/06/07 06:25:38;;;;;;;11.45;6.57;;;;;;;;;;4386780;32;318043;-80
2023/06/07 06:28:06;;;;;;;20.88;8.15;;;;;;;;;;4378730;32;317712;-84
2023/06/07 06:30:35;;;;;;;13.35;6.75;;;;;;;;;;4386587;32;317793;-80
2023/06/07 06:33:02;;;;;;;12.52;7.40;;;;;;;;;;4376149;32;317746;-80
2023/06/07 06:35:32;;;;;;;19.00;8.35;;;;;;;;;;4388800;32;317552;-81
2023/06/07 06:37:59;;;;;;;12.13;7.12;;;;;;;;;;4378425;32;317898;-83
2023/06/07 06:40:27;;;;;;;14.57;7.47;;;;;;;;;;4385821;32;318235;-80
2023/06/07 06:42:54;;;;;;;17.10;7.10;;;;;;;;;;4375803;32;317724;-80
2023/06/07 06:45:22;;;;;;;16.05;6.35;;;;;;;;;;4388526;32;317777;-80
2023/06/07 06:47:50;;;;;;;9.73;6.57;;;;;;;;;;4374896;32;317873;-80
2023/06/07 06:50:20;;;;;;;13.25;7.15;;;;;;;;;;4388789;32;316654;-80
2023/06/07 06:52:48;;;;;;;14.20;6.95;;;;;;;;;;4382362;32;318130;-82
2023/06/07 06:55:15;;;;;;;15.43;7.50;;;;;;;;;;4385195;32;317671;-81
2023/06/07 06:57:42;;;;;;;11.45;6.15;;;;;;;;;;4387587;32;317840;-80
2023/06/07 07:00:12;;;;;;;12.85;6.72;;;;;;;;;;4377035;32;318078;-85
2023/06/07 07:02:39;;;;;;;13.15;6.20;;;;;;;;;;4386268;32;317636;-82
2023/06/07 07:05:09;;;;;;;13.40;6.50;;;;;;;;;;4377534;32;317822;-81
2023/06/07 07:07:37;;;;;;;9.98;6.93;;;;;;;;;;4387601;32;317847;-85
2023/06/07 07:10:06;;;;;;;15.15;6.43;;;;;;;;;;4376134;32;316696;-80
2023/06/07 07:12:33;;;;;;;12.00;6.25;;;;;;;;;;4387929;32;317937;-80
2023/06/07 07:15:01;;;;;;;26.60;6.70;;;;;;;;;;4376814;32;323195;-80
2023/06/07 07:17:30;;;;;;;18.80;6.82;;;;;;;;;;4385629;32;317913;-81
2023/06/07 07:19:58;;;;;;;12.37;5.75;;;;;;;;;;4376794;32;317821;-81
2023/06/07 07:22:26;;;;;;;8.55;5.57;;;;;;;;;;4385537;32;317841;-80
2023/06/07 07:24:54;;;;;;;22.27;6.83;;;;;;;;;;4374539;32;316716;-84
2023/06/07 07:27:22;;;;;;;15.52;5.85;;;;;;;;;;4386718;32;317618;-84
2023/06/07 07:29:50;;;;;;;12.37;6.18;;;;;;;;;;4376026;32;325467;-81
2023/06/07 07:32:18;;;;;;;10.88;4.97;;;;;;;;;;4387250;32;317712;-81
2023/06/07 07:34:45;;;;;;;15.15;6.37;;;;;;;;;;4386814;32;316736;-80
2023/06/07 07:37:14;;;;;;;12.20;5.62;;;;;;;;;;4374712;32;417112;-80
2023/06/07 07:39:42;;;;;;;7.00;4.45;;;;;;;;;;4386371;32;317809;-82
2023/06/07 07:42:10;;;;;;;8.55;4.85;;;;;;;;;;4376825;32;331695;-82
2023/06/07 07:44:38;;;;;;;12.40;5.18;;;;;;;;;;4387458;32;317117;-82
2023/06/07 07:47:06;;;;;;;19.27;5.03;;;;;;;;;;4374246;32;317795;-80
2023/06/07 07:49:34;;;;;;;11.02;5.62;;;;;;;;;;4385499;32;358470;-80
2023/06/07 07:52:01;;;;;;;12.70;5.35;;;;;;;;;;4377389;32;318073;-80
2023/06/07 07:54:29;;;;;;;10.15;5.53;;;;;;;;;;4387513;32;317721;-80
2023/06/07 07:56:58;;;;;;;11.05;4.62;;;;;;;;;;4377079;32;317893;-80
2023/06/07 07:59:25;;;;;;;13.48;4.90;;;;;;;;;;4386936;32;316547;-80
2023/06/07 08:01:53;;;;;;;11.23;4.40;;;;;;;;;;4376833;32;344255;-80
2023/06/07 08:04:20;;;;;;;9.27;5.18;;;;;;;;;;4386394;32;317916;-80
2023/06/07 08:06:48;;;;;;;6.95;4.78;;;;;;;;;;4379704;32;316763;-81
2023/06/07 08:09:15;;;;;;;9.43;4.93;;;;;;;;;;4385624;32;316949;-81
2023/06/07 08:11:43;;;;;;;13.43;5.40;;;;;;;;;;4387335;32;316784;-82
2023/06/07 08:14:12;;;;;;;13.02;4.82;;;;;;;;;;4375608;32;317934;-80
2023/06/07 08:16:39;;;;;;;19.35;5.37;;;;;;;;;;4384853;32;317656;-83
2023/06/07 08:19:07;;;;;;;12.55;5.57;;;;;;;;;;4376945;32;318420;-81
2023/06/07 08:21:35;;;;;;;12.00;5.03;;;;;;;;;;4385154;32;318097;-81
2023/06/07 08:24:03;;;;;;;14.30;5.03;;;;;;;;;;4377263;32;318020;-80
2023/06/07 08:26:30;;;;;;;11.82;5.05;;;;;;;;;;4386473;32;317740;-81
2023/06/07 08:28:58;;;;;;;7.53;4.40;;;;;;;;;;4376582;32;317922;-81
2023/06/07 08:31:28;;;;;;;10.50;5.10;;;;;;;;;;4386218;32;316424;-81
2023/06/07 08:33:56;;;;;;;8.13;5.15;;;;;;;;;;4376523;32;317900;-85
2023/06/07 08:36:25;;;;;;;8.55;4.70;;;;;;;;;;4388050;32;315474;-80
2023/06/07 08:38:55;;;;;;;8.00;4.78;;;;;;;;;;4380255;32;316673;-83
2023/06/07 08:41:23;;;;;;;8.88;5.65;;;;;;;;;;4389959;32;316704;-83
2023/06/07 08:43:51;;;;;;;17.25;5.47;;;;;;;;;;4376166;32;340319;-84
2023/06/07 08:46:19;;;;;;;8.65;5.05;;;;;;;;;;4385595;32;318061;-83
2023/06/07 08:48:50;;;;;;;10.05;5.32;;;;;;;;;;4389226;32;316362;-84
2023/06/07 08:51:19;;;;;;;8.93;4.87;;;;;;;;;;4372868;32;416973;-82
2023/06/07 08:53:50;;;;;;;17.20;6.12;;;;;;;;;;4385091;32;315691;-83
2023/06/07 08:56:19;;;;;;;9.13;4.22;;;;;;;;;;4372676;32;416751;-83
2023/06/07 08:58:48;;;;;;;6.62;4.80;;;;;;;;;;4385316;32;316657;-84
2023/06/07 09:01:16;;;;;;;6.78;4.93;;;;;;;;;;4373269;32;416052;-83
2023/06/07 09:03:44;;;;;;;10.15;5.20;;;;;;;;;;4385766;32;316938;-83
2023/06/07 09:06:13;;;;;;;7.03;4.68;;;;;;;;;;4375250;32;317692;-83
2023/06/07 09:08:41;;;;;;;10.35;5.32;;;;;;;;;;4385823;32;316922;-84
2023/06/07 09:11:08;;;;;;;11.88;5.22;;;;;;;;;;4373459;32;317434;-83
2023/06/07 09:13:36;;;;;;;12.60;5.12;;;;;;;;;;4386397;32;318011;-82
2023/06/07 09:16:04;;;;;;;11.95;4.72;;;;;;;;;;4375407;32;317672;-82
2023/06/07 09:18:43;;;;;;;9.40;5.95;;;;;;;;;;4385030;32;317909;-84
2023/06/07 09:21:22;;;;;;;9.80;5.62;;;;;;;;;;4373829;32;316962;-84
2023/06/07 09:23:49;;;;;;;11.82;5.55;;;;;;;;;;4374992;32;317183;-85
2023/06/07 09:26:17;;;;;;;11.35;5.12;;;;;;;;;;4386216;32;317693;-83
2023/06/07 09:28:46;;;;;;;18.15;5.68;;;;;;;;;;4385080;32;317814;-84
2023/06/07 09:31:28;;;;;;;14.48;5.12;;;;;;;;;;4372660;32;417295;-84
2023/06/07 09:33:56;;;;;;;8.07;5.80;;;;;;;;;;4376226;32;317760;-84
2023/06/07 09:36:28;;;;;;;8.07;5.00;;;;;;;;;;4385904;32;316474;-84
2023/06/07 09:38:57;;;;;;;10.60;5.18;;;;;;;;;;4375123;32;317091;-83
2023/06/07 09:41:32;;;;;;;12.02;5.87;;;;;;;;;;4384905;32;343712;-84
2023/06/07 09:44:00;;;;;;;13.80;5.45;;;;;;;;;;4374476;32;317648;-84
2023/06/07 09:46:36;;;;;;;7.03;4.07;;;;;;;;;;4383738;32;358376;-84
2023/06/07 09:49:04;;;;;;;11.30;5.40;;;;;;;;;;4373854;32;316478;-84
2023/06/07 09:51:40;;;;;;;8.30;5.62;;;;;;;;;;4384819;32;317686;-84
2023/06/07 09:54:08;;;;;;;18.15;5.62;;;;;;;;;;4375094;32;316384;-84
2023/06/07 09:56:40;;;;;;;10.98;4.82;;;;;;;;;;4383512;32;317425;-84
2023/06/07 09:59:09;;;;;;;9.13;4.90;;;;;;;;;;4375128;32;317749;-84
2023/06/07 10:01:37;;;;;;;9.77;4.85;;;;;;;;;;4387357;32;316615;-84
2023/06/07 10:04:06;;;;;;;8.30;4.95;;;;;;;;;;4374071;32;316521;-84
2023/06/07 10:06:38;;;;;;;11.02;5.18;;;;;;;;;;4385131;32;316705;-84
2023/06/07 10:09:07;;;;;;;6.28;4.97;;;;;;;;;;4372866;32;317729;-84
2023/06/07 10:11:36;;;;;;;8.63;4.62;;;;;;;;;;4385470;32;316583;-84
2023/06/07 10:14:07;;;;;;;7.53;5.10;;;;;;;;;;4373839;32;319674;-84
2023/06/07 10:16:41;;;;;;;8.65;4.47;;;;;;;;;;4384600;32;316623;-84
2023/06/07 10:19:23;;;;;;;9.60;4.72;;;;;;;;;;4373411;32;316634;-85
2023/06/07 10:21:57;;;;;;;13.00;4.07;;;;;;;;;;4371182;32;316703;-84
2023/06/07 10:24:32;;;;;;;8.13;4.47;;;;;;;;;;4384732;32;317990;-84
2023/06/07 10:27:12;;;;;;;7.78;4.62;;;;;;;;;;4368797;32;316690;-85
2023/06/07 10:29:43;;;;;;;7.68;4.80;;;;;;;;;;4392486;32;316794;-84
2023/06/07 10:32:16;;;;;;;12.63;4.40;;;;;;;;;;4371491;32;324990;-85
2023/06/07 10:34:48;;;;;;;9.43;4.20;;;;;;;;;;4383428;32;317932;-84
2023/06/07 10:37:19;;;;;;;10.02;4.43;;;;;;;;;;4373017;32;329703;-84
2023/06/07 10:39:51;;;;;;;13.25;4.05;;;;;;;;;;4384392;32;317189;-84
2023/06/07 10:42:19;;;;;;;6.30;4.55;;;;;;;;;;4371556;32;417293;-84
2023/06/07 10:44:47;;;;;;;5.53;4.28;;;;;;;;;;4384548;32;316704;-84
2023/06/07 10:47:29;;;;;;;6.82;4.28;;;;;;;;;;4371623;32;415932;-84
2023/06/07 10:49:57;;;;;;;8.93;5.17;;;;;;;;;;4372069;32;316766;-85
2023/06/07 10:52:27;;;;;;;8.50;5.12;;;;;;;;;;4384321;32;316839;-85
2023/06/07 10:54:55;;;;;;;10.05;6.07;;;;;;;;;;4375574;32;316707;-84
2023/06/07 10:57:36;;;;;;;9.05;4.72;;;;;;;;;;4383349;32;317996;-84
2023/06/07 11:00:30;;;;;;;10.13;4.50;;;;;;;;;;4373823;32;317491;-82
2023/06/07 11:03:35;;;;;;;8.77;4.07;;;;;;;;;;4374362;32;318174;-84
2023/06/07 11:06:08;;;;;;;7.03;4.50;;;;;;;;;;4373668;32;316866;-82
2023/06/07 11:08:39;;;;;;;6.28;3.72;;;;;;;;;;4385166;32;316849;-84
2023/06/07 11:11:48;;;;;;;12.18;4.35;;;;;;;;;;4375991;32;316667;-83
2023/06/07 11:14:16;;;;;;;5.32;3.08;;;;;;;;;;4371466;32;390345;-84
2023/06/07 11:16:43;;;;;;;6.32;3.35;;;;;;;;;;4387745;32;316553;-85
2023/06/07 11:19:13;;;;;;;14.87;3.42;;;;;;;;;;4376006;32;316832;-83
2023/06/07 11:22:07;;;;;;;4.97;3.50;;;;;;;;;;4387415;32;317865;-83
2023/06/07 11:24:38;;;;;;;8.68;3.75;;;;;;;;;;4374694;32;416988;-83
2023/06/07 11:27:20;;;;;;;6.72;3.15;;;;;;;;;;4377447;32;316900;-86
2023/06/07 11:29:48;;;;;;;10.00;3.58;;;;;;;;;;4382448;32;316897;-82
2023/06/07 11:32:15;;;;;;;5.43;3.22;;;;;;;;;;4387669;32;317829;-82
2023/06/07 11:34:57;;;;;;;7.40;3.75;;;;;;;;;;4388626;32;316557;-81
2023/06/07 11:37:24;;;;;;;4.82;3.62;;;;;;;;;;4353412;32;417236;-80
2023/06/07 11:40:00;;;;;;;9.63;3.30;;;;;;;;;;4387973;32;316866;-81
2023/06/07 11:42:28;;;;;;;7.47;4.05;;;;;;;;;;4375331;32;419093;-81
2023/06/07 11:44:55;;;;;;;7.65;4.15;;;;;;;;;;4375838;32;316880;-81
2023/06/07 11:47:23;;;;;;;5.28;3.35;;;;;;;;;;4388561;32;316828;-82
2023/06/07 11:49:50;;;;;;;6.32;4.12;;;;;;;;;;4388284;32;316639;-81
2023/06/07 11:52:19;;;;;;;6.82;3.60;;;;;;;;;;4376804;32;317109;-81
2023/06/07 11:54:46;;;;;;;5.12;3.47;;;;;;;;;;4388023;32;316759;-82
2023/06/07 11:57:15;;;;;;;12.00;4.05;;;;;;;;;;4376271;32;316934;-82
2023/06/07 11:59:43;;;;;;;6.07;4.85;;;;;;;;;;4386490;32;317859;-82
2023/06/07 12:02:11;;;;;;;8.18;3.87;;;;;;;;;;4377265;32;316713;-82
2023/06/07 12:04:39;;;;;;;6.75;4.07;;;;;;;;;;4387419;32;317018;-82
2023/06/07 12:07:30;;;;;;;9.53;3.83;;;;;;;;;;4374530;32;317063;-82
2023/06/07 12:10:00;;;;;;;7.60;4.65;;;;;;;;;;4374546;32;316059;-81
2023/06/07 12:12:29;;;;;;;7.00;4.12;;;;;;;;;;4385204;32;316370;-81
2023/06/07 12:15:01;;;;;;;10.77;4.10;;;;;;;;;;4374817;32;316770;-83
2023/06/07 12:17:34;;;;;;;5.32;3.90;;;;;;;;;;4386521;32;317686;-81
2023/06/07 12:20:09;;;;;;;6.65;3.42;;;;;;;;;;4377103;32;316979;-82
2023/06/07 12:22:37;;;;;;;7.65;4.18;;;;;;;;;;4386727;32;316822;-82
2023/06/07 12:25:09;;;;;;;6.65;3.45;;;;;;;;;;4377511;32;316896;-82
2023/06/07 12:27:38;;;;;;;8.43;3.42;;;;;;;;;;4386766;32;316704;-83
2023/06/07 12:30:08;;;;;;;7.45;4.45;;;;;;;;;;4375211;32;316810;-81
2023/06/07 12:32:35;;;;;;;9.93;3.78;;;;;;;;;;4386430;32;316801;-84
2023/06/07 12:35:05;;;;;;;6.47;3.80;;;;;;;;;;4376055;32;316887;-82
2023/06/07 12:37:35;;;;;;;6.85;4.95;;;;;;;;;;4385674;32;335054;-82
2023/06/07 12:40:02;;;;;;;8.27;4.30;;;;;;;;;;4377107;32;316800;-82
2023/06/07 12:42:30;;;;;;;5.00;4.07;;;;;;;;;;4387374;32;316682;-83
2023/06/07 12:44:59;;;;;;;5.37;3.62;;;;;;;;;;4377096;32;316768;-81
2023/06/07 12:47:26;;;;;;;10.55;4.00;;;;;;;;;;4387423;32;316887;-84
2023/06/07 12:49:58;;;;;;;5.32;3.70;;;;;;;;;;4386316;32;317833;-81
2023/06/07 12:52:26;;;;;;;9.13;3.60;;;;;;;;;;4371018;32;415671;-82
2023/06/07 12:54:54;;;;;;;13.10;4.18;;;;;;;;;;4383062;32;316915;-82
2023/06/07 12:57:21;;;;;;;3.83;3.22;;;;;;;;;;4384873;32;317941;-83
2023/06/07 12:59:49;;;;;;;5.12;3.58;;;;;;;;;;4386522;32;316793;-83
2023/06/07 13:02:18;;;;;;;9.07;3.40;;;;;;;;;;4375062;32;316765;-82
2023/06/07 13:04:45;;;;;;;5.30;3.60;;;;;;;;;;4386164;32;317084;-82
2023/06/07 13:07:14;;;;;;;7.72;3.95;;;;;;;;;;4376704;32;316817;-82
2023/06/07 13:09:41;;;;;;;8.60;3.22;;;;;;;;;;4386738;32;316703;-82
2023/06/07 13:12:10;;;;;;;4.73;3.23;;;;;;;;;;4373906;32;316932;-82
2023/06/07 13:14:37;;;;;;;6.87;3.83;;;;;;;;;;4387122;32;316835;-82
2023/06/07 13:17:04;;;;;;;5.00;3.43;;;;;;;;;;4373767;32;316874;-82
2023/06/07 13:19:33;;;;;;;4.87;3.58;;;;;;;;;;4385416;32;316875;-84
2023/06/07 13:22:01;;;;;;;6.07;4.32;;;;;;;;;;4374901;32;315800;-82
2023/06/07 13:24:29;;;;;;;10.80;3.40;;;;;;;;;;4384425;32;316848;-82
2023/06/07 13:26:56;;;;;;;6.53;3.95;;;;;;;;;;4376461;32;317746;-82
2023/06/07 13:29:24;;;;;;;4.07;3.53;;;;;;;;;;4386835;32;316775;-82
2023/06/07 13:31:52;;;;;;;9.80;3.97;;;;;;;;;;4385520;32;317140;-82
2023/06/07 13:34:19;;;;;;;6.35;3.83;;;;;;;;;;4372311;32;418580;-82
2023/06/07 13:36:48;;;;;;;6.60;3.87;;;;;;;;;;4384882;32;316936;-83
2023/06/07 13:39:15;;;;;;;6.12;3.55;;;;;;;;;;4376433;32;316923;-82
2023/06/07 13:41:43;;;;;;;7.85;3.72;;;;;;;;;;4384877;32;316914;-83
2023/06/07 13:44:11;;;;;;;8.50;3.62;;;;;;;;;;4374690;32;316789;-83
2023/06/07 13:46:38;;;;;;;8.55;3.72;;;;;;;;;;4386219;32;316914;-82
2023/06/07 13:49:06;;;;;;;5.82;3.83;;;;;;;;;;4373873;32;317139;-82
2023/06/07 13:51:35;;;;;;;8.73;4.28;;;;;;;;;;4385014;32;316813;-85
2023/06/07 13:54:05;;;;;;;8.13;3.85;;;;;;;;;;4374823;32;316665;-79
2023/06/07 13:56:32;;;;;;;6.05;3.78;;;;;;;;;;4385294;32;317016;-78
2023/06/07 13:59:01;;;;;;;6.97;4.32;;;;;;;;;;4375867;32;316776;-78
2023/06/07 14:01:28;;;;;;;8.85;4.10;;;;;;;;;;4385327;32;316977;-78
2023/06/07 14:03:58;;;;;;;8.10;3.62;;;;;;;;;;4374989;32;316844;-78
2023/06/07 14:06:28;;;;;;;5.22;4.10;;;;;;;;;;4384749;32;317006;-78
2023/06/07 14:08:55;;;;;;;6.28;4.18;;;;;;;;;;4373911;32;398842;-78
2023/06/07 14:11:25;;;;;;;9.02;4.30;;;;;;;;;;4383812;32;317332;-80
2023/06/07 14:13:52;;;;;;;6.37;3.80;;;;;;;;;;4385160;32;316769;-78
2023/06/07 14:16:20;;;;;;;7.03;4.05;;;;;;;;;;4373020;32;416180;-78
2023/06/07 14:18:48;;;;;;;4.57;3.78;;;;;;;;;;4383302;32;317143;-78
2023/06/07 14:21:15;;;;;;;14.70;4.60;;;;;;;;;;4375593;32;316797;-78
2023/06/07 14:23:42;;;;;;;8.10;3.62;;;;;;;;;;4384798;32;318124;-78
2023/06/07 14:26:10;;;;;;;9.02;3.80;;;;;;;;;;4374172;32;316751;-78
2023/06/07 14:28:39;;;;;;;5.72;3.55;;;;;;;;;;4384002;32;346791;-78
2023/06/07 14:31:07;;;;;;;7.10;4.03;;;;;;;;;;4375157;32;316932;-78
2023/06/07 14:33:35;;;;;;;9.68;3.55;;;;;;;;;;4385209;32;316649;-78
2023/06/07 14:36:02;;;;;;;11.15;4.15;;;;;;;;;;4375878;32;316903;-78